메인 페이지
METAR-TAF:

METAR-TAF

공항 :

하이파, 이스라엘

위도: 32-48N, 경도: 035-02E, 고도: 8m

현재 날씨관측

예보는 49분 전, 18:50시(UTC)에 발표되었습니다.
여러 방향의 바람 3kt
온도 25°C
습도 34%
기압 1011 hPa
시정 10km 이상
1500m 미만 상공 구름 및 적란운 없음

METAR: LLHA 251850Z VRB03KT CAVOK 25/08 Q1011

시각: 21:39 (19:39 UTC)

예보

예보는 2 시간 19분 전, 17:20시(UTC)에 발표되었습니다.
예보 대상 시간: 25일 18시부터 26일 18시까지 (UTC)
여러 방향의 바람 3kt
시정 10km 이상
1500m 미만 상공 구름 및 적란운 없음
전환 중
25일 20시부터 25일 22시까지 (UTC)
남남동5kt
전환 중
26일 08시부터 26일 10시까지 (UTC)
10kt

TAF: LLHA 251720Z 2518/2618 VRB03KT CAVOK BECMG 2520/2522 15005KT BECMG 2608/2610 35010KT TX33/2611Z TN21/2603Z

4,000개 이상의 공항 관측 자료 및 예보 (METAR 및 TAF 보고).

지도상에서 검색 가능한 기상관측소가 노란 점과 빨간 점으로 표시되어 있습니다.

기상관측소 명을 보려면 표시 위로 마우스를 이동하세요.

날씨 관측과 예보를 보려면 클릭하세요.

지도 변경 : 확대하려면 엑스 표시가 있는 녹색 버튼, 축소하려면 빼기 표시가 있는 녹색 버튼, 다음 페이지의 지도를 보려면 녹색 화살표를 클릭하세요.


METAR-TAF: